Latest Weather Observations for Hughenden

IDQ60801

Issued at 11:35 pm EST Monday 1 September 2014 (issued every 30 minutes, with the page automatically refreshed every 10 minutes)

About weather observations | Map of weather stations | Latest weather observations for QLD | Other Formats
Station Details ID: 030022 Name: HUGHENDEN AIRPORT Lat: -20.82 Lon: 144.23 Height: 316.4 m
Data from the previous 72 hours. | See also: Recent months at Hughenden
Date/Time
EST
Temp
°C
App
Temp
°C
Dew
Point
Rel
Hum
%
Delta-T
°C
Wind Press
QNH
hPa
Press
MSL
hPa
Rain
since 9 am
mm
Dir
 
Spd
km/h
Gust
km/h
Spd
kts
Gust
kts
01/11:30pm 14.3 10.9 -5.4 25 7.5 ESE 4 7 2 4 1017.2 1015.6 0.0
01/11:00pm 15.2 12.5 -5.8 23 8.0 ENE 0 0 0 0 1017.1 1015.5 0.0
01/10:30pm 16.8 13.1 -4.4 23 8.4 ENE 6 11 3 6 1017.1 1015.5 0.0
01/10:00pm 17.7 13.1 -4.3 22 8.8 SE 11 13 6 7 1016.9 1015.3 0.0
01/09:30pm 18.4 13.7 -4.9 20 9.3 SE 11 11 6 6 1016.6 1015.1 0.0
01/09:00pm 18.3 13.6 -5.0 20 9.3 SE 11 11 6 6 1016.3 1014.8 0.0
01/08:30pm 20.5 15.0 -5.4 17 10.5 SSE 15 15 8 8 1016.1 1014.6 0.0
01/08:00pm 21.1 16.0 -4.9 17 10.7 S 13 15 7 8 1015.8 1014.3 0.0
01/07:30pm 22.1 17.4 -4.9 16 11.2 SSE 11 13 6 7 1015.2 1013.6 0.0
01/07:00pm 22.3 17.5 -5.6 15 11.4 S 11 11 6 6 1015.2 1013.6 0.0
01/06:30pm 25.8 21.5 -4.7 13 13.2 SSE 9 9 5 5 1015.0 1013.4 0.0
01/06:00pm 27.6 23.2 -5.5 11 14.3 S 9 11 5 6 1014.9 1013.3 0.0
01/05:30pm 28.9 24.6 -4.5 11 14.8 S 9 13 5 7 1014.7 1013.1 0.0
01/05:00pm 29.8 26.0 -5.1 10 15.5 WSW 6 7 3 4 1014.4 1012.8 0.0
01/04:30pm 29.2 25.0 -4.3 11 15.0 S 9 13 5 7 1014.1 1012.5 0.0
01/04:00pm 29.8 24.9 -3.8 11 15.2 SE 13 20 7 11 1014.1 1012.5 0.0
01/03:30pm 29.5 26.2 -4.0 11 15.1 N 4 9 2 5 1014.2 1012.6 0.0
01/03:00pm 29.4 24.8 -4.1 11 15.0 S 11 20 6 11 1014.4 1012.8 0.0
01/02:30pm 29.0 24.4 -4.4 11 14.9 ENE 11 22 6 12 1014.7 1013.1 0.0
01/02:00pm 29.0 24.0 -4.4 11 14.9 E 13 22 7 12 1015.3 1013.8 0.0
01/01:30pm 28.3 23.4 -3.8 12 14.4 N 13 20 7 11 1015.8 1014.3 0.0
01/01:00pm 27.5 23.2 -4.4 12 14.0 NNE 9 17 5 9 1016.4 1014.9 0.0
01/12:30pm 27.2 22.7 -3.6 13 13.7 NE 11 20 6 11 1017.1 1015.5 0.0
01/12:00pm 26.8 22.0 -2.9 14 13.3 E 13 17 7 9 1017.8 1016.2 0.0
01/11:30am 26.6 21.4 -3.1 14 13.3 E 15 24 8 13 1018.2 1016.7 0.0
01/11:00am 25.9 20.3 -2.7 15 12.8 ENE 17 24 9 13 1018.7 1017.2 0.0
01/10:30am 25.6 19.6 -1.2 17 12.3 ENE 20 26 11 14 1019.0 1017.5 0.0
01/10:00am 24.8 19.9 1.7 22 11.1 NNE 17 22 9 12 1019.2 1017.7 0.0
01/09:30am 23.8 18.5 2.0 24 10.5 NE 19 24 10 13 1019.2 1018.3 0.0
01/09:00am 21.6 16.5 3.3 30 8.9 NE 19 26 10 14 1019.3 1018.4 0.0
01/08:30am 19.5 15.0 4.4 37 7.4 NE 17 20 9 11 1019.0 1018.1 0.0
01/08:00am 17.8 13.8 4.7 42 6.3 NE 15 19 8 10 1019.0 1018.1 0.0
01/07:30am 16.8 13.7 5.4 47 5.6 ENE 11 15 6 8 1018.6 1017.7 0.0
01/07:00am 15.2 13.4 5.4 52 4.7 ENE 4 7 2 4 1017.9 1016.9 0.0
01/06:30am 14.3 11.8 4.9 53 4.5 ENE 7 11 4 6 1017.3 1016.3 0.0
01/06:00am 15.2 11.8 5.7 53 4.6 NE 13 17 7 9 1017.0 1016.0 0.0
01/05:30am 15.2 11.8 5.7 53 4.6 NE 13 17 7 9 1016.3 1015.4 0.0
01/05:00am 15.4 11.9 5.3 51 4.9 NE 13 17 7 9 1016.2 1015.3 0.0
01/04:30am 15.8 11.4 4.8 48 5.3 NE 17 20 9 11 1016.1 1015.2 0.0
01/04:00am 16.4 11.8 3.5 42 6.0 NE 17 22 9 12 1016.0 1015.1 0.0
01/03:30am 16.7 12.0 3.0 40 6.4 NE 17 20 9 11 1015.8 1014.9 0.0
01/03:00am 16.5 12.3 -0.7 31 7.4 ENE 11 19 6 10 1016.0 1015.1 0.0
01/02:30am 16.4 11.8 -1.2 30 7.5 ENE 13 15 7 8 1016.1 1015.2 0.0
01/02:00am 17.1 11.9 -0.1 31 7.5 E 17 22 9 12 1016.2 1015.3 0.0
01/01:30am 14.2 10.3 -1.8 33 6.6 ESE 9 13 5 7 1016.3 1015.4 0.0
01/01:00am 15.3 11.0 -1.3 32 7.0 ESE 11 13 6 7 1016.3 1015.4 0.0
01/12:30am 16.2 12.0 -0.9 31 7.3 ESE 11 13 6 7 1016.3 1015.4 0.0
01/12:00am 13.4 8.9 -2.9 32 6.5 SE 11 11 6 6 1016.6 1015.7 0.0
 
Date/Time
EST
Temp
°C
App
Temp
°C
Dew
Point
Rel
Hum
%
Delta-T
°C
Wind Press
QNH
hPa
Press
MSL
hPa
Rain
since 9 am
mm
Dir
 
Spd
km/h
Gust
km/h
Spd
kts
Gust
kts
31/11:30pm 15.3 11.3 -2.6 29 7.3 ESE 9 11 5 6 1016.8 1015.8 0.0
31/11:00pm 16.5 13.7 -3.0 26 8.0 E 2 6 1 3 1016.9 1015.9 0.0
31/10:30pm 16.5 12.1 -2.5 27 7.9 S 11 17 6 9 1016.9 1015.9 0.0
31/10:00pm 17.5 12.7 -2.7 25 8.4 ESE 13 13 7 7 1016.8 1015.8 0.0
31/09:30pm 18.2 13.7 -3.2 23 8.9 SE 11 15 6 8 1016.4 1015.5 0.0
31/09:00pm 18.0 13.5 -3.4 23 8.8 SE 11 11 6 6 1016.3 1015.4 0.0
31/08:30pm 18.7 14.2 -3.4 22 9.2 SSE 11 17 6 9 1016.1 1015.2 0.0
31/08:00pm 19.7 14.8 -3.2 21 9.6 SSE 13 15 7 8 1016.0 1015.1 0.0
31/07:30pm 21.0 16.1 -3.5 19 10.4 SSE 13 15 7 8 1015.6 1014.7 0.0
31/07:00pm 22.7 18.3 -2.8 18 11.1 SE 11 13 6 7 1015.1 1014.1 0.0
31/06:30pm 24.1 19.2 -3.3 16 12.0 SSE 13 15 7 8 1014.9 1013.9 0.0
31/06:00pm 26.1 20.9 -2.5 15 12.9 SE 15 20 8 11 1014.5 1013.5 0.0
31/05:30pm 27.1 22.0 -1.7 15 13.3 ESE 15 20 8 11 1014.4 1013.4 0.0
31/05:00pm 27.3 22.4 -0.7 16 13.1 SE 15 24 8 13 1014.3 1013.3 0.0
31/04:30pm 28.2 23.7 0.0 16 13.5 SE 13 24 7 13 1014.1 1013.1 0.0
31/04:00pm 27.6 23.8 -0.5 16 13.3 ENE 9 20 5 11 1014.1 1013.1 0.0
31/03:30pm 27.9 23.3 -1.1 15 13.6 SE 13 26 7 14 1014.1 1013.1 0.0
31/03:00pm 27.8 23.6 -1.2 15 13.5 SSE 11 24 6 13 1014.2 1013.2 0.0
31/02:30pm 27.0 21.9 -1.8 15 13.2 E 15 24 8 13 1014.5 1013.5 0.0
31/02:00pm 27.1 21.7 -1.7 15 13.3 NE 17 28 9 15 1014.9 1013.9 0.0
31/01:30pm 27.2 22.6 -0.8 16 13.1 E 13 24 7 13 1015.3 1014.3 0.0
31/01:00pm 26.5 21.9 -1.3 16 12.8 E 13 19 7 10 1015.9 1015.0 0.0
31/12:30pm 26.3 21.4 -0.7 17 12.6 ESE 15 39 8 21 1016.4 1015.5 0.0
31/12:00pm 25.8 20.2 -0.3 18 12.2 E 19 32 10 17 1017.3 1016.3 0.0
31/11:30am 24.9 20.1 0.4 20 11.5 ESE 15 30 8 16 1017.7 1016.7 0.0
31/11:00am 24.8 20.8 0.3 20 11.5 E 11 17 6 9 1018.1 1017.2 0.0
31/10:30am 24.6 19.1 0.8 21 11.3 SE 19 32 10 17 1018.5 1017.6 0.0
31/10:00am 24.4 18.6 2.5 24 10.7 E 22 32 12 17 1018.8 1017.9 0.0
31/09:30am 21.8 18.3 5.3 34 8.3 NE 13 17 7 9 1019.0 1018.1 0.0
31/09:00am 20.3 16.6 6.3 40 7.1 ENE 15 17 8 9 1019.2 1018.3 0.0
31/08:30am 19.3 15.7 6.8 44 6.4 NE 15 20 8 11 1019.1 1018.2 0.0
31/08:00am 17.5 15.0 6.4 48 5.5 ENE 9 15 5 8 1018.9 1018.0 0.0
31/07:30am 16.2 14.1 5.8 50 5.1 SE 6 7 3 4 1018.5 1017.6 0.0
31/07:00am 15.2 11.8 6.0 54 4.5 NE 13 17 7 9 1018.1 1017.2 0.0
31/06:30am 13.9 11.6 5.0 55 4.2 ESE 6 9 3 5 1017.8 1016.8 0.0
31/06:00am 15.1 12.0 5.6 53 4.6 NE 11 15 6 8 1017.7 1016.7 0.0
31/05:30am 15.4 11.9 5.3 51 4.9 ENE 13 17 7 9 1017.3 1016.3 0.0
31/05:00am 15.5 12.6 4.5 48 5.2 ENE 9 13 5 7 1017.1 1016.1 0.0
31/04:30am 16.0 12.3 4.4 46 5.5 E 13 17 7 9 1016.9 1015.9 0.0
31/04:00am 16.4 12.6 4.1 44 5.8 ENE 13 19 7 10 1016.8 1015.8 0.0
31/03:30am 16.6 12.5 2.2 38 6.6 E 13 19 7 10 1016.8 1015.8 0.0
31/03:00am 15.2 10.6 1.4 39 6.1 E 15 17 8 9 1016.8 1015.8 0.0
31/02:30am 15.4 10.7 0.8 37 6.4 ESE 15 19 8 10 1016.8 1015.8 0.0
31/02:00am 16.4 12.0 0.1 33 7.1 E 13 17 7 9 1017.1 1016.1 0.0
31/01:30am 15.4 11.9 1.2 38 6.3 E 9 15 5 8 1017.4 1016.4 0.0
31/01:00am 15.8 11.7 -0.4 33 6.9 SSE 11 15 6 8 1017.4 1016.4 0.0
31/12:30am 17.5 13.1 0.6 32 7.5 E 13 15 7 8 1017.3 1016.3 0.0
31/12:00am 17.3 12.8 0.0 31 7.6 ESE 13 15 7 8 1017.4 1016.4 0.0
 
Date/Time
EST
Temp
°C
App
Temp
°C
Dew
Point
Rel
Hum
%
Delta-T
°C
Wind Press
QNH
hPa
Press
MSL
hPa
Rain
since 9 am
mm
Dir
 
Spd
km/h
Gust
km/h
Spd
kts
Gust
kts
30/11:30pm 18.1 13.3 0.3 30 7.9 ESE 15 20 8 11 1017.4 1016.4 0.0
30/11:00pm 18.1 13.8 1.2 32 7.6 E 13 20 7 11 1017.2 1016.2 0.0
30/10:30pm 18.2 14.2 0.4 30 7.9 E 11 13 6 7 1017.3 1016.3 0.0
30/10:00pm 18.6 14.2 0.2 29 8.2 E 13 15 7 8 1017.3 1016.3 0.0
30/09:30pm 19.9 15.9 0.4 27 8.8 SE 11 15 6 8 1017.2 1016.2 0.0
30/09:00pm 20.3 15.9 0.2 26 9.1 SE 13 15 7 8 1017.2 1016.2 0.0
30/08:30pm 19.9 15.4 -0.1 26 9.0 SE 13 15 7 8 1017.0 1016.0 0.0
30/08:00pm 20.7 15.9 0.0 25 9.3 SE 15 17 8 9 1016.6 1015.7 0.0
30/07:30pm 21.1 16.7 0.3 25 9.5 SE 13 17 7 9 1016.4 1015.5 0.0
30/07:00pm 21.8 17.7 -0.2 23 10.0 ESE 11 11 6 6 1016.0 1015.1 0.0
30/06:30pm 23.3 19.6 -0.2 21 10.8 SE 9 13 5 7 1015.8 1014.9 0.0
30/06:00pm 25.4 20.5 -0.6 18 12.0 SE 15 19 8 10 1015.4 1014.5 0.0
30/05:30pm 26.3 21.4 -0.7 17 12.6 SSE 15 20 8 11 1015.3 1014.3 0.0
30/05:00pm 26.9 22.4 -0.2 17 12.8 ESE 13 19 7 10 1015.1 1014.1 0.0
30/04:30pm 27.2 23.5 0.1 17 12.9 ESE 9 15 5 8 1015.2 1014.2 0.0
30/04:00pm 27.6 21.9 0.4 17 13.0 SE 20 28 11 15 1015.3 1014.3 0.0
30/03:30pm 27.5 20.9 -0.5 16 13.2 E 24 30 13 16 1015.4 1014.5 0.0
30/03:00pm 27.0 21.9 0.7 18 12.6 E 17 24 9 13 1015.6 1014.7 0.0
30/02:30pm 26.7 22.3 0.4 18 12.5 E 13 20 7 11 1016.0 1015.1 0.0
30/02:00pm 26.6 21.1 0.4 18 12.5 E 19 28 10 15 1016.5 1015.6 0.0
30/01:30pm 26.3 20.7 0.9 19 12.2 E 20 32 11 17 1017.0 1016.0 0.0
30/01:00pm 26.6 20.3 1.8 20 12.1 SE 24 30 13 16 1017.6 1016.6 0.0
30/12:30pm 25.3 20.3 1.4 21 11.5 ENE 17 32 9 17 1018.3 1017.4 0.0
30/12:00pm 24.3 18.5 2.5 24 10.6 ESE 22 32 12 17 1019.0 1018.1 0.0
30/11:30am 23.9 18.1 2.1 24 10.5 ENE 22 33 12 18 1019.6 1018.7 0.0
30/11:00am 24.0 18.9 3.9 27 10.0 ESE 20 32 11 17 1019.9 1019.0 0.0
30/10:30am 23.4 18.3 3.9 28 9.7 ENE 20 35 11 19 1020.3 1019.3 0.0
30/10:00am 23.4 18.1 4.9 30 9.3 ENE 22 30 12 16 1020.5 1019.5 0.0
30/09:30am 21.2 18.5 7.4 41 7.2 NNE 11 17 6 9 1020.7 1019.7 0.0
30/09:00am 20.4 16.6 7.7 44 6.6 NE 17 20 9 11 1020.6 1019.6 0.0
30/08:30am 18.5 16.1 8.5 52 5.3 NE 11 17 6 9 1020.4 1019.4 0.0
30/08:00am 17.5 14.9 9.2 58 4.4 ENE 13 17 7 9 1020.1 1019.1 0.0
30/07:30am 16.7 14.8 9.1 61 4.0 E 9 17 5 9 1019.6 1018.7 0.0
30/07:00am 15.6 12.7 8.1 61 3.8 ENE 13 17 7 9 1019.4 1018.5 0.0
30/06:30am 15.0 11.9 7.3 60 3.9 ENE 13 17 7 9 1019.2 1018.3 0.0
30/06:00am 15.0 11.7 6.6 57 4.1 ENE 13 17 7 9 1019.2 1018.3 0.0
30/05:30am 14.1 11.7 5.2 55 4.2 ENE 7 9 4 5 1019.2 1018.3 0.0
30/05:00am 14.6 12.2 5.1 53 4.5 E 7 9 4 5 1018.8 1017.9 0.0
30/04:30am 14.3 11.8 4.6 52 4.6 ENE 7 11 4 6 1018.5 1017.6 0.0
30/04:00am 14.3 11.2 3.5 48 5.0 ESE 9 9 5 5 1018.5 1017.6 0.0
30/03:30am 15.2 12.1 3.7 46 5.4 E 9 13 5 7 1018.5 1017.6 0.0
30/03:00am 15.5 11.4 2.3 41 6.0 ESE 13 15 7 8 1018.4 1017.5 0.0
30/02:30am 16.4 12.3 2.1 38 6.5 ESE 13 17 7 9 1018.4 1017.5 0.0
30/02:00am 16.9 12.4 2.1 37 6.7 E 15 20 8 11 1018.3 1017.4 0.0
30/01:30am 17.8 12.3 1.7 34 7.4 ESE 20 24 11 13 1017.9 1016.9 0.0
30/01:00am 17.6 12.2 1.2 33 7.4 SE 19 22 10 12 1018.1 1017.2 0.0
30/12:30am 17.5 11.9 0.2 31 7.6 SE 19 20 10 11 1018.3 1017.4 0.0
30/12:00am 17.9 12.3 0.1 30 7.9 ESE 19 22 10 12 1018.2 1017.3 0.0

Other Formats:

Comma delimited format used in spreadsheet applications
http://www.bom.gov.au/fwo/IDQ60801/IDQ60801.94343.axf

JavaScript Object Notation format (JSON) in row-major order
http://www.bom.gov.au/fwo/IDQ60801/IDQ60801.94343.json